createdAt,value
2023-02-11T00:01:11.790Z,84.09
2023-02-11T00:03:38.966Z,84.13
2023-02-11T00:06:11.247Z,84.10
2023-02-11T00:08:40.815Z,83.91
2023-02-11T00:11:07.837Z,84.12
2023-02-11T00:13:36.887Z,83.83
2023-02-11T00:16:10.835Z,83.93
2023-02-11T00:18:37.742Z,83.84
2023-02-11T00:21:08.533Z,83.92
2023-02-11T00:23:35.526Z,83.77
2023-02-11T00:26:02.298Z,83.88
2023-02-11T00:28:29.043Z,83.79
2023-02-11T00:30:59.288Z,83.98
2023-02-11T00:33:26.021Z,84.03
2023-02-11T00:35:52.913Z,84.03
2023-02-11T00:38:20.371Z,84.09
2023-02-11T00:40:47.027Z,83.84
2023-02-11T00:43:13.682Z,83.96
2023-02-11T00:45:40.433Z,84.03
2023-02-11T00:48:07.086Z,83.88
2023-02-11T00:50:35.318Z,83.87
2023-02-11T00:53:02.119Z,83.73
2023-02-11T00:55:30.928Z,84.13
2023-02-11T00:57:58.948Z,83.95
2023-02-11T01:00:26.341Z,84.15
2023-02-11T01:02:53.462Z,83.87
2023-02-11T01:05:20.881Z,84.16
2023-02-11T01:07:47.846Z,83.83
2023-02-11T01:10:14.828Z,83.83
2023-02-11T01:12:41.545Z,84.29
2023-02-11T01:15:10.046Z,84.31
2023-02-11T01:17:36.717Z,84.61
2023-02-11T01:20:09.295Z,84.47
2023-02-11T01:22:39.540Z,84.30
2023-02-11T01:25:07.703Z,84.37
2023-02-11T01:27:34.572Z,84.24
2023-02-11T01:30:01.426Z,84.34
2023-02-11T01:32:28.173Z,84.53
2023-02-11T01:34:54.906Z,84.57
2023-02-11T01:37:21.593Z,84.52
2023-02-11T01:39:48.275Z,84.25
2023-02-11T01:42:23.639Z,84.25
2023-02-11T01:44:52.258Z,84.03
2023-02-11T01:47:19.519Z,84.13
2023-02-11T01:49:49.514Z,84.11
2023-02-11T01:52:29.008Z,83.85
2023-02-11T01:55:30.375Z,83.99
2023-02-11T01:58:05.095Z,83.93
2023-02-11T02:00:36.875Z,84.02
2023-02-11T02:03:22.664Z,84.18
2023-02-11T02:06:07.615Z,84.36
2023-02-11T02:08:55.955Z,83.95
2023-02-11T02:11:25.677Z,84.17
2023-02-11T02:13:52.586Z,83.73
2023-02-11T02:16:22.079Z,83.96
2023-02-11T02:19:08.064Z,83.75
2023-02-11T02:21:56.648Z,83.76
2023-02-11T02:24:56.685Z,83.66
2023-02-11T02:27:38.641Z,83.69
2023-02-11T02:30:17.584Z,83.33
2023-02-11T02:33:22.409Z,83.36
2023-02-11T02:36:08.867Z,83.28
2023-02-11T02:38:46.118Z,83.09
2023-02-11T02:41:19.268Z,82.99
2023-02-11T02:43:49.707Z,83.24
2023-02-11T02:46:25.461Z,83.43
2023-02-11T02:48:53.919Z,83.35
2023-02-11T02:51:26.266Z,83.10
2023-02-11T02:54:30.844Z,83.25
2023-02-11T02:57:38.391Z,83.24
2023-02-11T03:00:25.357Z,83.17
2023-02-11T03:03:20.430Z,83.38
2023-02-11T03:06:11.570Z,83.03
2023-02-11T03:08:50.890Z,83.07
2023-02-11T03:11:22.230Z,82.93
2023-02-11T03:13:51.060Z,83.14
2023-02-11T03:16:23.329Z,83.00
2023-02-11T03:18:57.271Z,83.02
2023-02-11T03:21:25.539Z,83.51
2023-02-11T03:24:00.541Z,83.43
2023-02-11T03:26:37.626Z,83.50
2023-02-11T03:29:17.060Z,83.30
2023-02-11T03:32:01.512Z,83.77
2023-02-11T03:34:35.557Z,83.60
2023-02-11T03:37:09.765Z,83.51
2023-02-11T03:39:38.064Z,83.21
2023-02-11T03:42:07.581Z,83.54
2023-02-11T03:44:42.174Z,83.52
2023-02-11T03:47:12.571Z,83.72
2023-02-11T03:49:42.997Z,83.61
2023-02-11T03:52:12.431Z,83.54
2023-02-11T03:54:42.657Z,83.92
2023-02-11T03:57:09.572Z,83.73
2023-02-11T03:59:57.144Z,83.33
2023-02-11T04:02:27.814Z,83.27
2023-02-11T04:04:54.651Z,82.64
2023-02-11T04:07:21.349Z,82.52
2023-02-11T04:09:47.996Z,82.37
2023-02-11T04:12:14.652Z,82.65
2023-02-11T04:14:41.298Z,82.84
2023-02-11T04:17:07.996Z,83.33
2023-02-11T04:19:34.921Z,83.23
2023-02-11T04:22:04.477Z,82.96
2023-02-11T04:24:31.334Z,83.11
2023-02-11T04:26:58.233Z,83.25
2023-02-11T04:29:24.886Z,83.09
2023-02-11T04:31:51.751Z,83.21
2023-02-11T04:34:18.429Z,83.14
2023-02-11T04:36:45.076Z,82.61
2023-02-11T04:39:11.853Z,82.81
2023-02-11T04:41:38.558Z,82.67
2023-02-11T04:44:05.673Z,82.74
2023-02-11T04:46:32.414Z,82.63
2023-02-11T04:48:59.110Z,82.53
2023-02-11T04:51:25.966Z,82.40
2023-02-11T04:53:52.601Z,82.59
2023-02-11T04:56:19.365Z,82.34
2023-02-11T04:58:46.032Z,82.45
2023-02-11T05:01:15.273Z,82.65
2023-02-11T05:03:42.084Z,82.85
2023-02-11T05:06:10.494Z,82.83
2023-02-11T05:08:37.167Z,82.68
2023-02-11T05:11:04.284Z,82.98
2023-02-11T05:13:33.600Z,82.79
2023-02-11T05:16:00.228Z,82.90
2023-02-11T05:18:26.839Z,82.79
2023-02-11T05:20:56.422Z,82.80
2023-02-11T05:23:23.184Z,82.80
2023-02-11T05:25:50.093Z,82.60
2023-02-11T05:28:17.006Z,82.72
2023-02-11T05:30:43.736Z,82.90
2023-02-11T05:33:10.413Z,82.63
2023-02-11T05:35:37.063Z,82.86
2023-02-11T05:38:03.715Z,82.80
2023-02-11T05:40:30.324Z,82.86
2023-02-11T05:42:57.091Z,82.84
2023-02-11T05:45:26.441Z,82.46
2023-02-11T05:47:53.145Z,82.53
2023-02-11T05:50:20.372Z,82.21
2023-02-11T05:52:47.069Z,82.11
2023-02-11T05:55:13.701Z,82.08
2023-02-11T05:57:40.376Z,81.81
2023-02-11T06:00:08.349Z,81.37
2023-02-11T06:02:35.110Z,81.54
2023-02-11T06:05:01.821Z,81.28
2023-02-11T06:07:28.443Z,81.35
2023-02-11T06:09:54.971Z,81.60
2023-02-11T06:12:22.765Z,81.05
2023-02-11T06:14:49.348Z,81.28
2023-02-11T06:17:15.998Z,81.25
2023-02-11T06:19:42.844Z,81.00
2023-02-11T06:22:09.754Z,80.80
2023-02-11T06:24:58.498Z,80.70
2023-02-11T06:27:24.435Z,80.79
2023-02-11T06:29:52.519Z,80.51
2023-02-11T06:32:39.306Z,80.06
2023-02-11T06:35:11.779Z,80.06
2023-02-11T06:37:38.986Z,80.12
2023-02-11T06:40:06.035Z,79.69
2023-02-11T06:42:32.735Z,79.77
2023-02-11T06:44:59.423Z,79.01
2023-02-11T06:47:26.103Z,78.73
2023-02-11T06:49:52.725Z,79.05
2023-02-11T06:52:19.372Z,79.10
2023-02-11T06:54:46.194Z,79.07
2023-02-11T06:57:12.898Z,78.75
2023-02-11T06:59:39.570Z,78.66
2023-02-11T07:02:06.243Z,78.67
2023-02-11T07:04:32.957Z,78.78
2023-02-11T07:06:59.674Z,78.86
2023-02-11T07:09:29.049Z,78.76
2023-02-11T07:11:55.832Z,78.63
2023-02-11T07:14:22.468Z,78.47
2023-02-11T07:16:49.161Z,78.50
2023-02-11T07:19:17.835Z,78.66
2023-02-11T07:21:44.477Z,78.61
2023-02-11T07:24:11.567Z,79.03
2023-02-11T07:26:38.514Z,78.47
2023-02-11T07:29:05.364Z,78.36
2023-02-11T07:31:33.178Z,78.48
2023-02-11T07:34:02.570Z,78.24
2023-02-11T07:36:31.872Z,78.02
2023-02-11T07:38:59.106Z,78.35
2023-02-11T07:41:27.089Z,78.20
2023-02-11T07:43:54.462Z,78.14
2023-02-11T07:46:24.216Z,78.19
2023-02-11T07:48:51.381Z,78.18
2023-02-11T07:51:27.100Z,78.19
2023-02-11T07:53:58.076Z,78.21
2023-02-11T07:56:25.031Z,78.57
2023-02-11T07:58:52.257Z,77.99
2023-02-11T08:01:24.946Z,78.13
2023-02-11T08:03:52.478Z,78.15
2023-02-11T08:06:21.772Z,78.29
2023-02-11T08:08:49.470Z,78.28
2023-02-11T08:11:22.368Z,77.68
2023-02-11T08:13:49.497Z,78.22
2023-02-11T08:16:31.695Z,77.79
2023-02-11T08:19:01.900Z,77.57
2023-02-11T08:21:29.188Z,77.35
2023-02-11T08:23:56.589Z,76.89
2023-02-11T08:26:29.160Z,77.08
2023-02-11T08:28:57.136Z,76.03
2023-02-11T08:31:34.295Z,76.03
2023-02-11T08:34:02.504Z,75.81
2023-02-11T08:36:31.547Z,75.71
2023-02-11T08:39:15.906Z,75.60
2023-02-11T08:41:46.402Z,74.90
2023-02-11T08:44:13.466Z,74.44
2023-02-11T08:46:40.128Z,74.66
2023-02-11T08:49:06.933Z,74.09
2023-02-11T08:51:33.705Z,73.93
2023-02-11T08:54:01.137Z,73.77
2023-02-11T08:56:28.391Z,73.81
2023-02-11T08:58:55.390Z,73.78
2023-02-11T09:01:28.765Z,73.25
2023-02-11T09:03:56.886Z,72.89
2023-02-11T09:06:25.092Z,73.55
2023-02-11T09:08:55.241Z,73.77
2023-02-11T09:11:27.494Z,73.37
2023-02-11T09:13:54.700Z,73.95
2023-02-11T09:16:30.255Z,73.72
2023-02-11T09:18:59.024Z,73.06
2023-02-11T09:21:26.283Z,72.99
2023-02-11T09:23:53.235Z,72.63
2023-02-11T09:26:23.019Z,72.06
2023-02-11T09:28:51.328Z,72.41
2023-02-11T09:31:20.607Z,71.90
2023-02-11T09:33:49.271Z,71.57
2023-02-11T09:36:21.012Z,72.19
2023-02-11T09:38:48.716Z,71.86
2023-02-11T09:41:24.624Z,71.66
2023-02-11T09:43:54.754Z,71.30
2023-02-11T09:46:23.526Z,71.24
2023-02-11T09:48:56.104Z,70.96
2023-02-11T09:51:31.812Z,70.46
2023-02-11T09:54:05.639Z,69.97
2023-02-11T09:56:32.563Z,69.96
2023-02-11T09:58:59.677Z,69.74
2023-02-11T10:01:47.701Z,69.64
2023-02-11T10:04:33.611Z,69.38
2023-02-11T10:07:18.469Z,69.08
2023-02-11T10:09:53.315Z,68.67
2023-02-11T10:12:45.816Z,68.07
2023-02-11T10:15:15.536Z,67.72
2023-02-11T10:18:10.172Z,67.84
2023-02-11T10:20:48.140Z,66.92
2023-02-11T10:23:30.305Z,66.29
2023-02-11T10:25:59.061Z,66.27
2023-02-11T10:28:33.389Z,66.00
2023-02-11T10:31:03.175Z,66.30
2023-02-11T10:34:15.172Z,65.92
2023-02-11T10:36:44.330Z,66.52
2023-02-11T10:39:16.625Z,67.01
2023-02-11T10:41:50.758Z,66.44
2023-02-11T10:44:23.321Z,65.94
2023-02-11T10:46:51.268Z,64.77
2023-02-11T10:49:39.738Z,64.99
2023-02-11T10:52:22.541Z,65.43
2023-02-11T10:54:56.389Z,64.90
2023-02-11T10:57:26.296Z,65.92
2023-02-11T10:59:58.413Z,65.14
2023-02-11T11:02:34.730Z,64.49
2023-02-11T11:05:07.328Z,64.09
2023-02-11T11:07:34.874Z,65.38
2023-02-11T11:10:31.886Z,65.31
2023-02-11T11:12:58.633Z,64.64
2023-02-11T11:15:30.107Z,65.59
2023-02-11T11:18:23.007Z,64.56
2023-02-11T11:21:21.721Z,63.18
2023-02-11T11:23:52.801Z,65.54
2023-02-11T11:26:19.982Z,64.03
2023-02-11T11:28:49.313Z,65.43
2023-02-11T11:31:24.658Z,66.27
2023-02-11T11:33:55.127Z,65.03
2023-02-11T11:36:30.583Z,65.04
2023-02-11T11:39:01.532Z,65.21
2023-02-11T11:41:36.084Z,65.53
2023-02-11T11:44:02.670Z,65.45
2023-02-11T11:46:33.151Z,65.20
2023-02-11T11:49:31.127Z,64.27
2023-02-11T11:52:14.122Z,63.45
2023-02-11T11:54:47.844Z,64.65
2023-02-11T11:57:22.304Z,65.57
2023-02-11T11:59:48.897Z,64.52
2023-02-11T12:02:35.281Z,65.16
2023-02-11T12:05:17.874Z,66.04
2023-02-11T12:08:25.822Z,64.81
2023-02-11T12:10:58.407Z,65.63
2023-02-11T12:13:48.904Z,65.07
2023-02-11T12:16:45.935Z,65.05
2023-02-11T12:19:46.540Z,65.24
2023-02-11T12:22:26.873Z,65.99
2023-02-11T12:25:38.693Z,65.33
2023-02-11T12:28:29.870Z,65.36
2023-02-11T12:31:03.185Z,64.44
2023-02-11T12:33:51.599Z,63.20
2023-02-11T12:36:28.215Z,62.02
2023-02-11T12:39:15.344Z,61.86
2023-02-11T12:42:00.496Z,62.67
2023-02-11T12:44:31.376Z,61.49
2023-02-11T12:47:33.231Z,60.81
2023-02-11T12:50:13.752Z,61.43
2023-02-11T12:53:10.390Z,60.65
2023-02-11T12:55:47.079Z,62.40
2023-02-11T12:58:25.367Z,59.65
2023-02-11T13:01:06.323Z,59.91
2023-02-11T13:03:46.424Z,59.90
2023-02-11T13:06:18.741Z,58.33
2023-02-11T13:08:54.314Z,56.47
2023-02-11T13:11:24.780Z,56.00
2023-02-11T13:13:51.385Z,55.13
2023-02-11T13:16:42.363Z,54.84
2023-02-11T13:19:47.399Z,54.25
2023-02-11T13:22:17.120Z,54.03
2023-02-11T13:24:48.093Z,54.03
2023-02-11T13:27:33.004Z,53.42
2023-02-11T13:30:23.392Z,53.71
2023-02-11T13:32:55.988Z,53.38
2023-02-11T13:35:39.264Z,53.52
2023-02-11T13:38:19.376Z,53.84
2023-02-11T13:41:06.281Z,53.25
2023-02-11T13:43:36.423Z,53.48
2023-02-11T13:46:06.361Z,54.05
2023-02-11T13:48:37.326Z,54.29
2023-02-11T13:51:13.715Z,54.55
2023-02-11T13:53:49.319Z,54.43
2023-02-11T13:56:44.214Z,53.91
2023-02-11T13:59:26.744Z,54.04
2023-02-11T14:02:11.940Z,54.37
2023-02-11T14:05:23.049Z,54.71
2023-02-11T14:08:29.379Z,56.13
2023-02-11T14:10:59.009Z,56.09
2023-02-11T14:13:32.893Z,56.18
2023-02-11T14:16:37.947Z,56.45
2023-02-11T14:19:06.462Z,56.01
2023-02-11T14:21:38.939Z,56.07
2023-02-11T14:24:07.132Z,56.13
2023-02-11T14:27:01.693Z,56.10
2023-02-11T14:29:46.026Z,56.60
2023-02-11T14:32:38.102Z,56.96
2023-02-11T14:35:29.126Z,56.48
2023-02-11T14:38:31.676Z,56.75
2023-02-11T14:41:16.388Z,56.92
2023-02-11T14:43:52.913Z,57.28
2023-02-11T14:46:21.187Z,57.25
2023-02-11T14:48:50.595Z,57.67
2023-02-11T14:51:26.643Z,57.67
2023-02-11T14:53:59.321Z,58.19
2023-02-11T14:56:34.487Z,58.35
2023-02-11T14:59:02.767Z,58.96
2023-02-11T15:01:41.536Z,59.33
2023-02-11T15:04:22.676Z,59.73
2023-02-11T15:06:49.818Z,60.36
2023-02-11T15:09:20.719Z,60.69
2023-02-11T15:11:49.816Z,61.06
2023-02-11T15:14:29.828Z,61.57
2023-02-11T15:17:08.912Z,62.05
2023-02-11T15:19:41.320Z,62.46
2023-02-11T15:22:22.151Z,64.01
2023-02-11T15:25:19.964Z,64.77
2023-02-11T15:27:48.179Z,66.21
2023-02-11T15:30:24.390Z,66.17
2023-02-11T15:32:58.037Z,66.91
2023-02-11T15:35:37.216Z,67.39
2023-02-11T15:38:05.105Z,67.08
2023-02-11T15:40:37.145Z,67.45
2023-02-11T15:43:07.112Z,67.38
2023-02-11T15:45:38.891Z,67.70
2023-02-11T15:48:18.685Z,68.21
2023-02-11T15:50:52.178Z,67.64
2023-02-11T15:53:27.712Z,67.96
2023-02-11T15:56:04.086Z,68.21
2023-02-11T15:58:37.442Z,68.49
2023-02-11T16:01:04.667Z,68.57
2023-02-11T16:03:33.093Z,68.42
2023-02-11T16:06:39.038Z,69.18
2023-02-11T16:09:08.502Z,69.29
2023-02-11T16:11:56.741Z,69.22
2023-02-11T16:14:42.249Z,69.42
2023-02-11T16:17:12.257Z,69.63
2023-02-11T16:19:48.533Z,70.06
2023-02-11T16:22:22.977Z,70.48
2023-02-11T16:24:52.571Z,70.87
2023-02-11T16:27:38.103Z,70.79
2023-02-11T16:30:05.760Z,70.87
2023-02-11T16:32:32.441Z,70.95
2023-02-11T16:35:00.934Z,70.98
2023-02-11T16:37:28.316Z,71.02
2023-02-11T16:39:56.276Z,71.26
2023-02-11T16:42:23.721Z,71.45
2023-02-11T16:44:50.328Z,71.57
2023-02-11T16:47:23.010Z,71.63
2023-02-11T16:49:49.962Z,71.65
2023-02-11T16:52:18.375Z,71.58
2023-02-11T16:54:45.060Z,71.86
2023-02-11T16:57:16.807Z,72.35
2023-02-11T16:59:44.333Z,72.27
2023-02-11T17:02:28.067Z,72.11
2023-02-11T17:04:56.377Z,72.52
2023-02-11T17:07:22.985Z,72.61
2023-02-11T17:09:49.779Z,72.46
2023-02-11T17:12:16.398Z,72.87
2023-02-11T17:14:42.968Z,72.90
2023-02-11T17:17:10.873Z,72.75
2023-02-11T17:19:38.507Z,72.95
2023-02-11T17:22:05.211Z,72.72
2023-02-11T17:24:32.064Z,72.95
2023-02-11T17:26:58.803Z,72.69
2023-02-11T17:29:26.273Z,72.68
2023-02-11T17:31:53.744Z,72.85
2023-02-11T17:34:22.457Z,72.99
2023-02-11T17:36:49.465Z,73.25
2023-02-11T17:39:16.778Z,73.28
2023-02-11T17:41:43.605Z,73.69
2023-02-11T17:44:12.596Z,73.15
2023-02-11T17:46:39.387Z,73.49
2023-02-11T17:49:06.155Z,73.71
2023-02-11T17:51:37.975Z,73.69
2023-02-11T17:54:17.364Z,73.96
2023-02-11T17:56:45.188Z,73.79
2023-02-11T17:59:13.316Z,74.20
2023-02-11T18:01:42.264Z,74.11
2023-02-11T18:04:13.597Z,74.37
2023-02-11T18:06:40.674Z,74.43
2023-02-11T18:09:07.350Z,74.27
2023-02-11T18:11:36.291Z,74.35
2023-02-11T18:14:04.622Z,74.25
2023-02-11T18:16:31.609Z,74.23
2023-02-11T18:18:58.634Z,74.33
2023-02-11T18:21:25.691Z,74.75
2023-02-11T18:23:52.653Z,74.75
2023-02-11T18:26:20.811Z,75.03
2023-02-11T18:28:47.698Z,75.09
2023-02-11T18:31:14.730Z,74.53
2023-02-11T18:33:42.965Z,74.89
2023-02-11T18:36:12.712Z,74.87
2023-02-11T18:38:39.931Z,74.73
2023-02-11T18:41:10.192Z,74.77
2023-02-11T18:43:37.000Z,74.78
2023-02-11T18:46:09.117Z,74.74
2023-02-11T18:48:36.181Z,74.90
2023-02-11T18:51:02.960Z,74.72
2023-02-11T18:53:29.724Z,75.42
2023-02-11T18:55:56.330Z,74.85
2023-02-11T18:58:23.070Z,74.87
2023-02-11T19:00:50.587Z,75.04
2023-02-11T19:03:17.506Z,75.16
2023-02-11T19:05:46.406Z,75.12
2023-02-11T19:08:13.978Z,75.09
2023-02-11T19:10:47.402Z,75.14
2023-02-11T19:13:14.390Z,75.12
2023-02-11T19:15:45.707Z,75.17
2023-02-11T19:18:16.490Z,75.41
2023-02-11T19:20:44.311Z,75.11
2023-02-11T19:23:11.424Z,75.56
2023-02-11T19:25:44.469Z,75.54
2023-02-11T19:28:11.264Z,75.35
2023-02-11T19:30:38.046Z,75.45
2023-02-11T19:33:04.947Z,75.80
2023-02-11T19:35:35.589Z,76.00
2023-02-11T19:38:04.584Z,76.08
2023-02-11T19:40:32.384Z,76.25
2023-02-11T19:42:59.236Z,76.72
2023-02-11T19:45:27.068Z,76.67
2023-02-11T19:47:56.939Z,77.00
2023-02-11T19:50:24.414Z,77.21
2023-02-11T19:52:51.260Z,77.49
2023-02-11T19:55:18.118Z,77.54
2023-02-11T19:57:44.945Z,77.95
2023-02-11T20:00:12.147Z,77.93
2023-02-11T20:02:40.141Z,78.01
2023-02-11T20:05:07.311Z,77.91
2023-02-11T20:07:33.965Z,77.98
2023-02-11T20:10:00.823Z,77.84
2023-02-11T20:12:27.536Z,77.88
2023-02-11T20:14:54.096Z,77.85
2023-02-11T20:17:20.733Z,78.21
2023-02-11T20:19:47.361Z,78.07
2023-02-11T20:22:14.026Z,78.02
2023-02-11T20:24:40.801Z,77.95
2023-02-11T20:27:11.606Z,78.07
2023-02-11T20:29:39.124Z,78.17
2023-02-11T20:32:06.633Z,78.12
2023-02-11T20:34:33.891Z,78.35
2023-02-11T20:37:00.665Z,78.39
2023-02-11T20:39:27.391Z,78.03
2023-02-11T20:41:54.876Z,77.92
2023-02-11T20:44:22.399Z,78.53
2023-02-11T20:46:51.157Z,78.38
2023-02-11T20:49:21.734Z,77.78
2023-02-11T20:51:49.283Z,78.06
2023-02-11T20:54:18.908Z,77.60
2023-02-11T20:56:51.230Z,77.96
2023-02-11T20:59:19.012Z,77.64
2023-02-11T21:01:53.420Z,77.86
2023-02-11T21:04:23.983Z,77.72
2023-02-11T21:06:53.824Z,77.64
2023-02-11T21:09:23.713Z,77.58
2023-02-11T21:11:51.785Z,78.08
2023-02-11T21:14:19.911Z,77.76
2023-02-11T21:16:48.232Z,77.38
2023-02-11T21:19:15.960Z,77.14
2023-02-11T21:21:42.891Z,77.34
2023-02-11T21:24:10.459Z,77.30
2023-02-11T21:26:37.562Z,77.35
2023-02-11T21:29:05.549Z,77.19
2023-02-11T21:31:34.084Z,77.64
2023-02-11T21:34:01.320Z,77.65
2023-02-11T21:36:29.592Z,77.42
2023-02-11T21:38:56.572Z,77.56
2023-02-11T21:41:24.788Z,77.48
2023-02-11T21:43:52.161Z,77.61
2023-02-11T21:46:19.975Z,77.89
2023-02-11T21:48:47.403Z,77.97
2023-02-11T21:51:17.829Z,77.88
2023-02-11T21:53:44.838Z,77.81
2023-02-11T21:56:17.080Z,78.01
2023-02-11T21:58:45.127Z,78.10
2023-02-11T22:01:18.428Z,78.03
2023-02-11T22:03:46.487Z,78.10
2023-02-11T22:06:16.680Z,78.24
2023-02-11T22:08:43.775Z,78.46
2023-02-11T22:11:12.893Z,78.31
2023-02-11T22:13:40.397Z,78.20
2023-02-11T22:16:10.813Z,79.13
2023-02-11T22:18:38.251Z,78.88
2023-02-11T22:21:07.801Z,78.79
2023-02-11T22:23:35.457Z,79.21
2023-02-11T22:26:10.966Z,79.89
2023-02-11T22:28:40.558Z,80.50
2023-02-11T22:31:11.663Z,80.87
2023-02-11T22:33:38.286Z,81.49
2023-02-11T22:36:08.599Z,82.31
2023-02-11T22:38:35.479Z,83.08
2023-02-11T22:41:07.235Z,83.79
2023-02-11T22:43:34.051Z,84.71
2023-02-11T22:46:02.031Z,84.67
2023-02-11T22:48:29.182Z,84.54
2023-02-11T22:50:58.521Z,85.33
2023-02-11T22:53:25.612Z,86.50
2023-02-11T22:55:52.782Z,85.37
2023-02-11T22:58:19.558Z,83.89
2023-02-11T23:00:46.234Z,83.75
2023-02-11T23:03:13.452Z,84.51
2023-02-11T23:05:41.840Z,83.88
2023-02-11T23:08:10.614Z,83.52
2023-02-11T23:10:38.884Z,83.17
2023-02-11T23:13:06.744Z,83.27
2023-02-11T23:15:33.663Z,84.26
2023-02-11T23:18:00.284Z,84.13
2023-02-11T23:20:26.916Z,83.80
2023-02-11T23:22:53.592Z,83.21
2023-02-11T23:25:20.203Z,83.35
2023-02-11T23:27:46.944Z,83.44
2023-02-11T23:30:14.028Z,83.48
2023-02-11T23:32:40.984Z,82.69
2023-02-11T23:35:07.856Z,82.46
2023-02-11T23:37:36.853Z,82.28
2023-02-11T23:40:03.640Z,82.63
2023-02-11T23:42:30.286Z,84.19
2023-02-11T23:44:56.920Z,85.29
2023-02-11T23:47:23.469Z,85.19
2023-02-11T23:49:50.103Z,86.57
2023-02-11T23:52:16.799Z,86.88
2023-02-11T23:54:44.097Z,86.48
2023-02-11T23:57:10.713Z,86.58
2023-02-11T23:59:37.380Z,87.04
